Essendon, Australia
Current Conditions -  °F | °C
As of 5:00 PM on Monday 26 Jan 2015 (Local Time) from YMEN Reporting Station
Broken Clouds Broken Clouds  
Wind Chill: 68°   Ceiling: 7000
Heat Index: 68°   Visibility: 6mi
Dew Point: 46°   Wind: 22mph
Humidity: 46%   Direction: 190°S
Pressure: 29.97"   Gusts: NA
Location:  37.75°S, 144.91°E
Report Text: YMEN 260600Z AUTO 19019KT 9999 // SCT042 BKN070 20/08 Q1015
Loading
Personal Weather Stations






























Interactive Weather Map New forecast layout! Learn more

10-Day Weather Forecast

Advertisements
Track Severe Weather on mobile